createdAt,value
2023-04-10T00:00:07.621Z,997.68
2023-04-10T00:01:07.638Z,997.56
2023-04-10T00:02:07.654Z,997.65
2023-04-10T00:03:07.945Z,997.68
2023-04-10T00:04:07.640Z,997.68
2023-04-10T00:05:07.629Z,997.66
2023-04-10T00:06:07.549Z,997.62
2023-04-10T00:07:07.539Z,997.61
2023-04-10T00:08:07.556Z,997.70
2023-04-10T00:09:07.526Z,997.65
2023-04-10T00:10:07.531Z,997.65
2023-04-10T00:11:07.497Z,997.62
2023-04-10T00:12:07.496Z,997.71
2023-04-10T00:13:07.525Z,997.66
2023-04-10T00:14:07.477Z,997.67
2023-04-10T00:15:07.473Z,997.66
2023-04-10T00:16:07.506Z,997.76
2023-04-10T00:17:07.431Z,997.76
2023-04-10T00:18:07.444Z,997.68
2023-04-10T00:19:07.423Z,997.73
2023-04-10T00:20:07.398Z,997.67
2023-04-10T00:21:07.408Z,997.67
2023-04-10T00:22:07.394Z,997.67
2023-04-10T00:23:07.401Z,997.67
2023-04-10T00:24:07.363Z,997.69
2023-04-10T00:25:07.381Z,997.62
2023-04-10T00:26:07.345Z,997.63
2023-04-10T00:27:07.319Z,997.68
2023-04-10T00:28:07.320Z,997.69
2023-04-10T00:29:07.335Z,997.70
2023-04-10T00:30:07.298Z,997.65
2023-04-10T00:31:07.301Z,997.64
2023-04-10T00:32:07.355Z,997.73
2023-04-10T00:33:07.345Z,997.69
2023-04-10T00:34:07.273Z,997.64
2023-04-10T00:35:07.250Z,997.67
2023-04-10T00:36:07.247Z,997.61
2023-04-10T00:37:07.272Z,997.66
2023-04-10T00:38:07.233Z,997.65
2023-04-10T00:39:07.209Z,997.59
2023-04-10T00:40:07.212Z,997.66
2023-04-10T00:41:07.195Z,997.63
2023-04-10T00:42:07.178Z,997.55
2023-04-10T00:43:07.170Z,997.59
2023-04-10T00:44:07.160Z,997.55
2023-04-10T00:45:07.175Z,997.59
2023-04-10T00:46:07.171Z,997.62
2023-04-10T00:47:07.110Z,997.57
2023-04-10T00:48:07.126Z,997.57
2023-04-10T00:49:07.114Z,997.59
2023-04-10T00:50:07.088Z,997.61
2023-04-10T00:51:07.070Z,997.61
2023-04-10T00:52:07.063Z,997.59
2023-04-10T00:53:07.047Z,997.66
2023-04-10T00:54:08.051Z,997.68
2023-04-10T00:55:07.051Z,997.57
2023-04-10T00:56:07.031Z,997.54
2023-04-10T00:57:07.092Z,997.57
2023-04-10T00:58:07.013Z,997.56
2023-04-10T00:59:07.374Z,997.58
2023-04-10T01:00:07.990Z,997.58
2023-04-10T01:01:07.015Z,997.68
2023-04-10T01:02:07.017Z,997.62
2023-04-10T01:03:07.039Z,997.65
2023-04-10T01:04:07.086Z,997.68
2023-04-10T01:05:06.944Z,997.66
2023-04-10T01:06:06.934Z,997.72
2023-04-10T01:07:06.908Z,997.61
2023-04-10T01:08:06.915Z,997.65
2023-04-10T01:09:06.916Z,997.65
2023-04-10T01:10:06.895Z,997.69
2023-04-10T01:11:06.856Z,997.72
2023-04-10T01:12:06.864Z,997.67
2023-04-10T01:13:06.858Z,997.65
2023-04-10T01:14:06.838Z,997.64
2023-04-10T01:15:06.848Z,997.61
2023-04-10T01:16:06.807Z,997.68
2023-04-10T01:17:06.929Z,997.70
2023-04-10T01:18:06.870Z,997.70
2023-04-10T01:19:06.798Z,997.64
2023-04-10T01:20:06.774Z,997.70
2023-04-10T01:21:06.777Z,997.67
2023-04-10T01:22:06.757Z,997.64
2023-04-10T01:23:06.758Z,997.69
2023-04-10T01:24:06.735Z,997.62
2023-04-10T01:25:06.743Z,997.60
2023-04-10T01:26:06.704Z,997.60
2023-04-10T01:27:06.702Z,997.55
2023-04-10T01:28:06.705Z,997.53
2023-04-10T01:29:06.679Z,997.62
2023-04-10T01:30:06.704Z,997.55
2023-04-10T01:31:06.780Z,997.64
2023-04-10T01:32:06.644Z,997.68
2023-04-10T01:33:06.766Z,997.58
2023-04-10T01:34:06.660Z,997.61
2023-04-10T01:35:06.638Z,997.63
2023-04-10T01:36:06.659Z,997.69
2023-04-10T01:37:06.602Z,997.64
2023-04-10T01:38:06.601Z,997.64
2023-04-10T01:39:06.602Z,997.62
2023-04-10T01:40:06.573Z,997.60
2023-04-10T01:41:06.569Z,997.63
2023-04-10T01:42:06.547Z,997.61
2023-04-10T01:43:06.543Z,997.56
2023-04-10T01:44:06.575Z,997.58
2023-04-10T01:45:06.528Z,997.54
2023-04-10T01:46:06.549Z,997.51
2023-04-10T01:47:06.498Z,997.51
2023-04-10T01:48:06.522Z,997.53
2023-04-10T01:49:06.489Z,997.59
2023-04-10T01:50:06.472Z,997.54
2023-04-10T01:51:06.495Z,997.52
2023-04-10T01:52:06.453Z,997.50
2023-04-10T01:53:06.427Z,997.53
2023-04-10T01:54:07.437Z,997.56
2023-04-10T01:55:06.424Z,997.52
2023-04-10T01:56:06.398Z,997.50
2023-04-10T01:57:06.411Z,997.50
2023-04-10T01:58:06.397Z,997.49
2023-04-10T01:59:06.388Z,997.46
2023-04-10T02:00:06.366Z,997.55
2023-04-10T02:01:06.533Z,997.49
2023-04-10T02:02:06.415Z,997.48
2023-04-10T02:03:06.522Z,997.46
2023-04-10T02:04:06.425Z,997.46
2023-04-10T02:05:06.397Z,997.48
2023-04-10T02:06:06.299Z,997.48
2023-04-10T02:07:06.300Z,997.48
2023-04-10T02:08:06.296Z,997.52
2023-04-10T02:09:06.283Z,997.55
2023-04-10T02:10:06.278Z,997.51
2023-04-10T02:11:06.261Z,997.49
2023-04-10T02:12:06.242Z,997.44
2023-04-10T02:13:06.247Z,997.51
2023-04-10T02:14:06.235Z,997.48
2023-04-10T02:15:06.217Z,997.49
2023-04-10T02:16:06.206Z,997.50
2023-04-10T02:17:06.180Z,997.50
2023-04-10T02:18:06.193Z,997.49
2023-04-10T02:19:06.183Z,997.47
2023-04-10T02:20:06.188Z,997.52
2023-04-10T02:21:06.170Z,997.50
2023-04-10T02:22:06.130Z,997.53
2023-04-10T02:23:06.123Z,997.48
2023-04-10T02:24:06.119Z,997.51
2023-04-10T02:25:06.134Z,997.45
2023-04-10T02:26:06.108Z,997.50
2023-04-10T02:27:06.077Z,997.48
2023-04-10T02:28:06.075Z,997.49
2023-04-10T02:29:07.070Z,997.51
2023-04-10T02:30:06.071Z,997.49
2023-04-10T02:31:06.070Z,997.47
2023-04-10T02:32:06.040Z,997.58
2023-04-10T02:33:06.061Z,997.47
2023-04-10T02:34:06.029Z,997.49
2023-04-10T02:35:06.019Z,997.48
2023-04-10T02:36:06.055Z,997.49
2023-04-10T02:37:05.984Z,997.48
2023-04-10T02:38:05.988Z,997.50
2023-04-10T02:39:05.964Z,997.49
2023-04-10T02:40:05.962Z,997.51
2023-04-10T02:41:05.934Z,997.57
2023-04-10T02:42:05.941Z,997.54
2023-04-10T02:43:05.915Z,997.57
2023-04-10T02:44:05.940Z,997.49
2023-04-10T02:45:05.910Z,997.55
2023-04-10T02:46:05.901Z,997.47
2023-04-10T02:47:05.913Z,997.46
2023-04-10T02:48:05.882Z,997.44
2023-04-10T02:49:05.865Z,997.48
2023-04-10T02:50:05.846Z,997.47
2023-04-10T02:51:05.869Z,997.41
2023-04-10T02:52:05.821Z,997.44
2023-04-10T02:53:05.811Z,997.42
2023-04-10T02:54:05.820Z,997.44
2023-04-10T02:55:05.809Z,997.43
2023-04-10T02:56:05.808Z,997.42
2023-04-10T02:57:05.765Z,997.39
2023-04-10T02:58:05.760Z,997.33
2023-04-10T02:59:05.762Z,997.34
2023-04-10T03:00:05.759Z,997.29
2023-04-10T03:01:05.749Z,997.29
2023-04-10T03:02:05.786Z,997.27
2023-04-10T03:03:05.924Z,997.28
2023-04-10T03:04:06.762Z,997.27
2023-04-10T03:05:05.701Z,997.31
2023-04-10T03:06:07.869Z,997.26
2023-04-10T03:07:06.663Z,997.31
2023-04-10T03:08:05.656Z,997.36
2023-04-10T03:09:05.646Z,997.30
2023-04-10T03:10:05.629Z,997.37
2023-04-10T03:11:05.650Z,997.37
2023-04-10T03:12:05.631Z,997.34
2023-04-10T03:13:05.606Z,997.42
2023-04-10T03:14:05.589Z,997.39
2023-04-10T03:15:05.590Z,997.39
2023-04-10T03:16:05.655Z,997.38
2023-04-10T03:17:05.566Z,997.34
2023-04-10T03:18:05.608Z,997.37
2023-04-10T03:19:05.552Z,997.29
2023-04-10T03:20:05.526Z,997.36
2023-04-10T03:21:05.538Z,997.31
2023-04-10T03:22:05.519Z,997.34
2023-04-10T03:23:05.494Z,997.31
2023-04-10T03:24:05.515Z,997.33
2023-04-10T03:25:05.480Z,997.32
2023-04-10T03:26:05.481Z,997.26
2023-04-10T03:27:05.458Z,997.32
2023-04-10T03:28:05.470Z,997.28
2023-04-10T03:29:05.436Z,997.31
2023-04-10T03:30:05.429Z,997.31
2023-04-10T03:31:05.431Z,997.37
2023-04-10T03:32:05.452Z,997.32
2023-04-10T03:33:05.442Z,997.30
2023-04-10T03:34:05.425Z,997.31
2023-04-10T03:35:05.368Z,997.21
2023-04-10T03:36:05.406Z,997.21
2023-04-10T03:37:05.365Z,997.28
2023-04-10T03:38:05.335Z,997.21
2023-04-10T03:39:05.343Z,997.22
2023-04-10T03:40:05.329Z,997.27
2023-04-10T03:41:05.307Z,997.22
2023-04-10T03:42:05.357Z,997.16
2023-04-10T03:43:05.281Z,997.13
2023-04-10T03:44:37.198Z,997.22
2023-04-10T03:45:05.277Z,997.17
2023-04-10T03:46:05.284Z,997.17
2023-04-10T03:47:05.284Z,997.13
2023-04-10T03:48:05.293Z,997.21
2023-04-10T03:49:05.254Z,997.14
2023-04-10T03:50:05.218Z,997.13
2023-04-10T03:51:05.194Z,997.17
2023-04-10T03:52:05.202Z,997.19
2023-04-10T03:53:05.203Z,997.12
2023-04-10T03:54:05.189Z,997.14
2023-04-10T03:55:05.184Z,997.19
2023-04-10T03:56:05.167Z,997.18
2023-04-10T03:57:05.136Z,997.16
2023-04-10T03:58:05.139Z,997.18
2023-04-10T03:59:05.153Z,997.20
2023-04-10T04:00:05.128Z,997.16
2023-04-10T04:01:05.076Z,997.19
2023-04-10T04:02:05.144Z,997.22
2023-04-10T04:03:05.295Z,997.27
2023-04-10T04:04:05.144Z,997.17
2023-04-10T04:05:05.201Z,997.25
2023-04-10T04:06:05.048Z,997.17
2023-04-10T04:07:05.060Z,997.21
2023-04-10T04:08:05.020Z,997.22
2023-04-10T04:09:05.001Z,997.22
2023-04-10T04:10:05.015Z,997.20
2023-04-10T04:11:04.971Z,997.14
2023-04-10T04:12:04.985Z,997.12
2023-04-10T04:13:04.985Z,997.16
2023-04-10T04:14:04.965Z,997.11
2023-04-10T04:15:04.927Z,997.11
2023-04-10T04:16:04.930Z,997.17
2023-04-10T04:17:05.142Z,997.20
2023-04-10T04:18:04.948Z,997.12
2023-04-10T04:19:04.923Z,997.13
2023-04-10T04:20:04.894Z,997.07
2023-04-10T04:21:04.865Z,997.09
2023-04-10T04:22:04.878Z,997.07
2023-04-10T04:23:04.871Z,997.05
2023-04-10T04:24:04.890Z,997.05
2023-04-10T04:25:04.846Z,997.05
2023-04-10T04:26:04.840Z,997.08
2023-04-10T04:27:04.818Z,997.12
2023-04-10T04:28:04.823Z,997.07
2023-04-10T04:29:04.826Z,997.03
2023-04-10T04:30:04.799Z,997.06
2023-04-10T04:31:04.763Z,997.02
2023-04-10T04:32:04.829Z,997.06
2023-04-10T04:33:04.823Z,997.09
2023-04-10T04:34:04.741Z,997.10
2023-04-10T04:35:04.729Z,997.12
2023-04-10T04:36:04.889Z,997.09
2023-04-10T04:37:04.721Z,997.14
2023-04-10T04:38:04.697Z,997.10
2023-04-10T04:39:04.668Z,997.14
2023-04-10T04:40:04.661Z,997.10
2023-04-10T04:41:04.686Z,997.15
2023-04-10T04:42:04.638Z,997.13
2023-04-10T04:43:04.682Z,997.17
2023-04-10T04:44:04.635Z,997.13
2023-04-10T04:45:04.622Z,997.16
2023-04-10T04:46:04.680Z,997.17
2023-04-10T04:47:04.625Z,997.21
2023-04-10T04:48:04.705Z,997.20
2023-04-10T04:49:04.560Z,997.16
2023-04-10T04:50:04.588Z,997.16
2023-04-10T04:51:05.538Z,997.23
2023-04-10T04:52:04.557Z,997.19
2023-04-10T04:53:06.655Z,997.23
2023-04-10T04:54:04.529Z,997.16
2023-04-10T04:55:04.518Z,997.18
2023-04-10T04:56:04.538Z,997.13
2023-04-10T04:57:04.538Z,997.17
2023-04-10T04:58:04.477Z,997.21
2023-04-10T04:59:04.485Z,997.14
2023-04-10T05:00:04.463Z,997.17
2023-04-10T05:01:04.488Z,997.12
2023-04-10T05:02:04.540Z,997.13
2023-04-10T05:03:04.568Z,997.15
2023-04-10T05:04:04.687Z,997.19
2023-04-10T05:05:04.394Z,997.11
2023-04-10T05:06:04.411Z,997.07
2023-04-10T05:07:04.394Z,997.09
2023-04-10T05:08:04.380Z,997.09
2023-04-10T05:09:04.353Z,997.12
2023-04-10T05:10:04.360Z,997.16
2023-04-10T05:11:04.411Z,997.05
2023-04-10T05:12:04.350Z,997.04
2023-04-10T05:13:04.309Z,997.08
2023-04-10T05:14:04.321Z,997.05
2023-04-10T05:15:04.282Z,997.14
2023-04-10T05:16:04.349Z,997.12
2023-04-10T05:17:04.299Z,997.09
2023-04-10T05:18:04.321Z,997.19
2023-04-10T05:19:04.238Z,997.12
2023-04-10T05:20:04.260Z,997.11
2023-04-10T05:21:04.250Z,997.17
2023-04-10T05:22:04.229Z,997.20
2023-04-10T05:23:04.247Z,997.15
2023-04-10T05:24:04.212Z,997.19
2023-04-10T05:25:04.185Z,997.17
2023-04-10T05:26:04.178Z,997.13
2023-04-10T05:27:04.250Z,997.17
2023-04-10T05:28:04.180Z,997.11
2023-04-10T05:29:04.135Z,997.13
2023-04-10T05:30:04.177Z,997.14
2023-04-10T05:31:04.133Z,997.19
2023-04-10T05:32:04.123Z,997.20
2023-04-10T05:33:05.137Z,997.18
2023-04-10T05:34:04.102Z,997.20
2023-04-10T05:35:04.085Z,997.13
2023-04-10T05:36:04.107Z,997.12
2023-04-10T05:37:04.100Z,997.13
2023-04-10T05:38:04.032Z,997.15
2023-04-10T05:39:04.085Z,997.18
2023-04-10T05:40:04.057Z,997.15
2023-04-10T05:41:04.027Z,997.22
2023-04-10T05:42:04.010Z,997.19
2023-04-10T05:43:04.033Z,997.15
2023-04-10T05:44:04.003Z,997.18
2023-04-10T05:45:03.986Z,997.21
2023-04-10T05:46:04.031Z,997.22
2023-04-10T05:47:04.988Z,997.19
2023-04-10T05:48:04.004Z,997.23
2023-04-10T05:49:03.993Z,997.21
2023-04-10T05:50:03.955Z,997.24
2023-04-10T05:51:03.907Z,997.20
2023-04-10T05:52:03.919Z,997.20
2023-04-10T05:53:03.925Z,997.22
2023-04-10T05:54:03.886Z,997.26
2023-04-10T05:55:03.901Z,997.17
2023-04-10T05:56:03.896Z,997.17
2023-04-10T05:57:03.852Z,997.21
2023-04-10T05:58:03.851Z,997.20
2023-04-10T05:59:03.878Z,997.23
2023-04-10T06:00:03.841Z,997.26
2023-04-10T06:01:03.940Z,997.21
2023-04-10T06:02:03.921Z,997.12
2023-04-10T06:03:03.845Z,997.18
2023-04-10T06:04:03.988Z,997.18
2023-04-10T06:05:03.816Z,997.15
2023-04-10T06:06:03.771Z,997.21
2023-04-10T06:07:03.756Z,997.12
2023-04-10T06:08:03.771Z,997.16
2023-04-10T06:09:03.763Z,997.17
2023-04-10T06:10:03.735Z,997.15
2023-04-10T06:11:03.741Z,997.13
2023-04-10T06:12:03.741Z,997.14
2023-04-10T06:13:03.725Z,997.11
2023-04-10T06:14:03.696Z,997.10
2023-04-10T06:15:03.682Z,997.07
2023-04-10T06:16:03.692Z,997.02
2023-04-10T06:17:03.683Z,997.09
2023-04-10T06:18:03.671Z,997.05
2023-04-10T06:19:03.659Z,997.05
2023-04-10T06:20:03.636Z,997.00
2023-04-10T06:21:04.639Z,997.07
2023-04-10T06:22:03.613Z,997.06
2023-04-10T06:23:03.627Z,997.08
2023-04-10T06:24:03.629Z,997.02
2023-04-10T06:25:03.561Z,997.12
2023-04-10T06:26:03.586Z,997.05
2023-04-10T06:27:03.554Z,997.00
2023-04-10T06:28:03.559Z,997.06
2023-04-10T06:29:03.550Z,997.08
2023-04-10T06:30:03.548Z,996.99
2023-04-10T06:31:03.621Z,997.01
2023-04-10T06:32:03.510Z,997.02
2023-04-10T06:33:03.553Z,996.95
2023-04-10T06:34:03.683Z,996.87
2023-04-10T06:35:03.527Z,996.90
2023-04-10T06:36:03.499Z,996.89
2023-04-10T06:37:03.457Z,996.90
2023-04-10T06:38:03.448Z,996.87
2023-04-10T06:39:03.470Z,996.86
2023-04-10T06:40:03.439Z,996.88
2023-04-10T06:41:03.417Z,996.80
2023-04-10T06:42:03.416Z,996.79
2023-04-10T06:43:03.412Z,996.76
2023-04-10T06:44:03.744Z,996.78
2023-04-10T06:45:04.376Z,996.74
2023-04-10T06:46:03.385Z,996.68
2023-04-10T06:47:03.636Z,996.65
2023-04-10T06:48:03.428Z,996.67
2023-04-10T06:49:03.324Z,996.59
2023-04-10T06:50:03.346Z,996.61
2023-04-10T06:51:03.337Z,996.56
2023-04-10T06:52:03.315Z,996.54
2023-04-10T06:53:03.305Z,996.53
2023-04-10T06:54:03.299Z,996.55
2023-04-10T06:55:04.262Z,996.58
2023-04-10T06:56:03.898Z,996.57
2023-04-10T06:57:04.275Z,996.56
2023-04-10T06:58:03.240Z,996.54
2023-04-10T06:59:03.263Z,996.58
2023-04-10T07:00:03.251Z,996.58
2023-04-10T07:01:03.213Z,996.56
2023-04-10T07:02:03.229Z,996.53
2023-04-10T07:03:03.289Z,996.51
2023-04-10T07:04:03.246Z,996.51
2023-04-10T07:05:03.162Z,996.51
2023-04-10T07:06:03.285Z,996.50
2023-04-10T07:07:03.135Z,996.55
2023-04-10T07:08:03.119Z,996.50
2023-04-10T07:09:04.146Z,996.50
2023-04-10T07:10:03.118Z,996.47
2023-04-10T07:11:03.094Z,996.40
2023-04-10T07:12:03.083Z,996.37
2023-04-10T07:13:03.112Z,996.41
2023-04-10T07:14:03.076Z,996.41
2023-04-10T07:15:03.053Z,996.43
2023-04-10T07:16:03.058Z,996.47
2023-04-10T07:17:03.081Z,996.47
2023-04-10T07:18:03.087Z,996.45
2023-04-10T07:19:03.016Z,996.42
2023-04-10T07:20:03.001Z,996.34
2023-04-10T07:21:03.032Z,996.38
2023-04-10T07:22:02.969Z,996.37
2023-04-10T07:23:03.004Z,996.31
2023-04-10T07:24:02.950Z,996.27
2023-04-10T07:25:02.963Z,996.33
2023-04-10T07:26:02.957Z,996.35
2023-04-10T07:27:02.923Z,996.33
2023-04-10T07:28:02.910Z,996.30
2023-04-10T07:29:02.884Z,996.28
2023-04-10T07:30:02.902Z,996.32
2023-04-10T07:31:02.861Z,996.33
2023-04-10T07:32:02.910Z,996.28
2023-04-10T07:33:03.143Z,996.31
2023-04-10T07:34:02.880Z,996.33
2023-04-10T07:35:02.798Z,996.27
2023-04-10T07:36:02.849Z,996.29
2023-04-10T07:37:03.830Z,996.28
2023-04-10T07:38:02.778Z,996.28
2023-04-10T07:39:02.795Z,996.29
2023-04-10T07:40:02.839Z,996.31
2023-04-10T07:41:02.734Z,996.22
2023-04-10T07:42:02.747Z,996.25
2023-04-10T07:43:02.743Z,996.28
2023-04-10T07:44:02.732Z,996.24
2023-04-10T07:45:02.693Z,996.25
2023-04-10T07:46:02.750Z,996.27
2023-04-10T07:47:02.720Z,996.24
2023-04-10T07:48:02.736Z,996.18
2023-04-10T07:49:02.653Z,996.20
2023-04-10T07:50:02.682Z,996.17
2023-04-10T07:51:02.677Z,996.10
2023-04-10T07:52:02.625Z,996.11
2023-04-10T07:53:02.642Z,996.08
2023-04-10T07:54:02.645Z,996.06
2023-04-10T07:55:02.589Z,996.01
2023-04-10T07:56:02.597Z,996.05
2023-04-10T07:57:02.596Z,995.99
2023-04-10T07:58:02.567Z,995.97
2023-04-10T07:59:02.533Z,995.95
2023-04-10T08:00:02.570Z,995.95
2023-04-10T08:01:02.541Z,995.98
2023-04-10T08:02:02.541Z,995.94
2023-04-10T08:03:02.723Z,995.98
2023-04-10T08:04:05.291Z,995.87
2023-04-10T08:05:03.637Z,995.90
2023-04-10T08:06:02.586Z,995.91
2023-04-10T08:07:02.475Z,995.92
2023-04-10T08:08:02.469Z,995.91
2023-04-10T08:09:02.430Z,995.91
2023-04-10T08:10:03.467Z,995.94
2023-04-10T08:11:02.409Z,995.89
2023-04-10T08:12:02.420Z,995.90
2023-04-10T08:13:02.409Z,995.91
2023-04-10T08:14:02.420Z,995.85
2023-04-10T08:15:02.356Z,995.87
2023-04-10T08:16:02.377Z,995.82
2023-04-10T08:17:02.519Z,995.81
2023-04-10T08:18:02.367Z,995.72
2023-04-10T08:19:02.311Z,995.75
2023-04-10T08:20:02.332Z,995.79
2023-04-10T08:21:02.337Z,995.78
2023-04-10T08:22:02.290Z,995.70
2023-04-10T08:23:13.015Z,995.75
2023-04-10T08:24:04.279Z,995.71
2023-04-10T08:25:02.260Z,995.77
2023-04-10T08:26:02.334Z,995.72
2023-04-10T08:27:02.254Z,995.73
2023-04-10T08:28:02.265Z,995.71
2023-04-10T08:29:02.193Z,995.68
2023-04-10T08:30:02.435Z,995.68
2023-04-10T08:31:02.248Z,995.67
2023-04-10T08:32:03.182Z,995.64
2023-04-10T08:33:02.164Z,995.60
2023-04-10T08:34:02.159Z,995.65
2023-04-10T08:35:02.213Z,995.62
2023-04-10T08:36:02.190Z,995.65
2023-04-10T08:37:02.142Z,995.61
2023-04-10T08:38:13.681Z,995.61
2023-04-10T08:39:04.075Z,995.60
2023-04-10T08:40:02.228Z,995.53
2023-04-10T08:41:02.103Z,995.51
2023-04-10T08:42:02.095Z,995.59
2023-04-10T08:43:02.152Z,995.61
2023-04-10T08:44:02.162Z,995.55
2023-04-10T08:45:02.054Z,995.52
2023-04-10T08:46:02.047Z,995.53
2023-04-10T08:47:02.031Z,995.49
2023-04-10T08:48:02.007Z,995.49
2023-04-10T08:49:01.964Z,995.57
2023-04-10T08:50:01.959Z,995.46
2023-04-10T08:51:02.026Z,995.47
2023-04-10T08:52:01.960Z,995.45
2023-04-10T08:53:01.928Z,995.46
2023-04-10T08:54:01.916Z,995.46
2023-04-10T08:55:01.959Z,995.48
2023-04-10T08:56:01.901Z,995.47
2023-04-10T08:57:01.885Z,995.39
2023-04-10T08:58:02.178Z,995.40
2023-04-10T08:59:01.851Z,995.30
2023-04-10T09:00:06.780Z,995.32
2023-04-10T09:01:03.869Z,995.29
2023-04-10T09:02:01.949Z,995.24
2023-04-10T09:03:02.000Z,995.31
2023-04-10T09:04:02.067Z,995.23
2023-04-10T09:05:01.813Z,995.26
2023-04-10T09:06:01.770Z,995.19
2023-04-10T09:07:01.805Z,995.22
2023-04-10T09:08:01.824Z,995.16
2023-04-10T09:10:02.747Z,995.15
2023-04-10T09:11:01.750Z,995.07
2023-04-10T09:12:01.922Z,995.10
2023-04-10T09:13:01.691Z,995.12
2023-04-10T09:14:01.732Z,995.06
2023-04-10T09:15:01.718Z,995.04
2023-04-10T09:16:01.767Z,995.02
2023-04-10T09:17:01.699Z,994.98
2023-04-10T09:18:01.784Z,994.90
2023-04-10T09:19:01.700Z,994.94
2023-04-10T09:20:01.660Z,994.91
2023-04-10T09:21:01.637Z,994.89
2023-04-10T09:22:01.618Z,994.91
2023-04-10T09:23:01.621Z,994.87
2023-04-10T09:24:02.592Z,994.74
2023-04-10T09:25:01.622Z,994.75
2023-04-10T09:26:01.576Z,994.75
2023-04-10T09:27:01.571Z,994.68
2023-04-10T09:28:01.542Z,994.71
2023-04-10T09:29:01.561Z,994.65
2023-04-10T09:30:01.545Z,994.62
2023-04-10T09:31:01.578Z,994.60
2023-04-10T09:32:01.532Z,994.62
2023-04-10T09:33:02.149Z,994.60
2023-04-10T09:34:01.481Z,994.56
2023-04-10T09:35:01.498Z,994.58
2023-04-10T09:36:01.560Z,994.55
2023-04-10T09:37:01.467Z,994.44
2023-04-10T09:38:01.463Z,994.49
2023-04-10T09:39:01.455Z,994.42
2023-04-10T09:40:01.431Z,994.38
2023-04-10T09:41:01.447Z,994.39
2023-04-10T09:42:01.404Z,994.39
2023-04-10T09:43:01.418Z,994.23
2023-04-10T09:44:01.384Z,994.27
2023-04-10T09:45:01.407Z,994.26
2023-04-10T09:46:01.351Z,994.32
2023-04-10T09:47:01.433Z,994.24
2023-04-10T09:48:01.369Z,994.23
2023-04-10T09:49:01.309Z,994.18
2023-04-10T09:50:01.312Z,994.27
2023-04-10T09:51:01.342Z,994.20
2023-04-10T09:52:01.335Z,994.20
2023-04-10T09:53:01.269Z,994.26
2023-04-10T09:54:01.270Z,994.16
2023-04-10T09:55:01.242Z,994.12
2023-04-10T09:56:01.262Z,994.04
2023-04-10T09:57:01.270Z,994.06
2023-04-10T09:58:01.250Z,994.10
2023-04-10T09:59:01.224Z,994.03
2023-04-10T10:00:01.214Z,994.04
2023-04-10T10:01:01.223Z,994.05
2023-04-10T10:02:01.395Z,994.01
2023-04-10T10:03:01.402Z,994.00
2023-04-10T10:04:01.187Z,993.94
2023-04-10T10:05:01.221Z,993.89
2023-04-10T10:06:02.149Z,993.89
2023-04-10T10:07:01.182Z,993.98
2023-04-10T10:08:01.133Z,993.94
2023-04-10T10:09:01.165Z,993.88
2023-04-10T10:10:02.147Z,993.82
2023-04-10T10:11:01.079Z,993.89
2023-04-10T10:12:01.104Z,993.86
2023-04-10T10:13:01.118Z,993.83
2023-04-10T10:14:01.070Z,993.80
2023-04-10T10:15:01.044Z,993.68
2023-04-10T10:16:01.088Z,993.80
2023-04-10T10:17:01.053Z,993.77
2023-04-10T10:18:01.025Z,993.69
2023-04-10T10:19:01.034Z,993.66
2023-04-10T10:20:01.043Z,993.65
2023-04-10T10:21:00.987Z,993.71
2023-04-10T10:22:01.031Z,993.69
2023-04-10T10:23:01.011Z,993.68
2023-04-10T10:24:00.967Z,993.63
2023-04-10T10:25:00.975Z,993.66
2023-04-10T10:26:02.396Z,993.56
2023-04-10T10:27:00.957Z,993.55
2023-04-10T10:28:00.937Z,993.54
2023-04-10T10:29:00.892Z,993.58
2023-04-10T10:30:02.882Z,993.44
2023-04-10T10:31:01.929Z,993.48
2023-04-10T10:32:00.900Z,993.44
2023-04-10T10:33:00.976Z,993.45
2023-04-10T10:34:00.884Z,993.50
2023-04-10T10:35:00.827Z,993.47
2023-04-10T10:36:00.856Z,993.41
2023-04-10T10:37:00.839Z,993.42
2023-04-10T10:38:00.825Z,993.39
2023-04-10T10:39:00.783Z,993.51
2023-04-10T10:40:00.826Z,993.32
2023-04-10T10:41:00.812Z,993.29
2023-04-10T10:42:00.754Z,993.29
2023-04-10T10:43:00.785Z,993.26
2023-04-10T10:44:00.769Z,993.26
2023-04-10T10:45:00.721Z,993.17
2023-04-10T10:46:00.761Z,993.20
2023-04-10T10:47:00.729Z,993.19
2023-04-10T10:48:00.755Z,993.17
2023-04-10T10:49:00.719Z,993.09
2023-04-10T10:50:00.725Z,993.12
2023-04-10T10:51:00.721Z,993.10
2023-04-10T10:52:00.661Z,993.03
2023-04-10T10:53:00.660Z,993.08
2023-04-10T10:54:00.638Z,993.05
2023-04-10T10:55:00.637Z,992.99
2023-04-10T10:56:00.612Z,993.02
2023-04-10T10:57:00.638Z,992.90
2023-04-10T10:58:00.600Z,992.86
2023-04-10T10:59:00.578Z,992.80
2023-04-10T11:00:00.566Z,992.84
2023-04-10T11:01:00.601Z,992.81
2023-04-10T11:02:00.646Z,992.84
2023-04-10T11:03:00.684Z,992.74
2023-04-10T11:04:00.740Z,992.78
2023-04-10T11:05:00.536Z,992.74
2023-04-10T11:06:00.485Z,992.70
2023-04-10T11:07:00.532Z,992.71
2023-04-10T11:08:00.480Z,992.61
2023-04-10T11:09:00.477Z,992.61
2023-04-10T11:10:00.480Z,992.55
2023-04-10T11:11:00.464Z,992.56
2023-04-10T11:12:00.437Z,992.51
2023-04-10T11:13:00.441Z,992.55
2023-04-10T11:14:00.426Z,992.51
2023-04-10T11:15:00.405Z,992.51
2023-04-10T11:16:00.415Z,992.49
2023-04-10T11:17:00.493Z,992.43
2023-04-10T11:18:00.440Z,992.45
2023-04-10T11:19:13.087Z,992.40
2023-04-10T11:20:02.358Z,992.44
2023-04-10T11:21:00.353Z,992.36
2023-04-10T11:22:00.318Z,992.31
2023-04-10T11:23:00.340Z,992.36
2023-04-10T11:24:00.311Z,992.27
2023-04-10T11:25:00.429Z,992.31
2023-04-10T11:26:00.278Z,992.28
2023-04-10T11:27:00.290Z,992.27
2023-04-10T11:28:00.275Z,992.23
2023-04-10T11:29:00.242Z,992.19
2023-04-10T11:30:00.250Z,992.24
2023-04-10T11:31:00.243Z,992.14
2023-04-10T11:32:00.261Z,992.09
2023-04-10T11:33:00.236Z,992.07
2023-04-10T11:34:00.192Z,991.95
2023-04-10T11:35:00.460Z,991.99
2023-04-10T11:36:00.232Z,992.05
2023-04-10T11:37:00.150Z,992.07
2023-04-10T11:38:00.184Z,992.04
2023-04-10T11:39:00.122Z,992.05
2023-04-10T11:40:00.152Z,992.00
2023-04-10T11:41:00.153Z,991.94
2023-04-10T11:42:00.131Z,991.91
2023-04-10T11:43:00.109Z,991.79
2023-04-10T11:44:00.156Z,991.84
2023-04-10T11:45:00.103Z,991.83
2023-04-10T11:46:00.107Z,991.80
2023-04-10T11:47:00.103Z,991.66
2023-04-10T11:48:00.114Z,991.70
2023-04-10T11:49:00.021Z,991.71
2023-04-10T11:50:00.046Z,991.60
2023-04-10T11:51:00.076Z,991.67
2023-04-10T11:52:00.024Z,991.67
2023-04-10T11:52:59.966Z,991.66
2023-04-10T11:54:00.009Z,991.68
2023-04-10T11:54:59.951Z,991.63
2023-04-10T11:55:59.952Z,991.64
2023-04-10T11:56:59.970Z,991.65
2023-04-10T11:57:59.953Z,991.63
2023-04-10T11:58:59.906Z,991.58
2023-04-10T11:59:59.902Z,991.54
2023-04-10T12:00:59.948Z,991.40
2023-04-10T12:01:59.969Z,991.49
2023-04-10T12:03:00.062Z,991.40
2023-04-10T12:04:00.046Z,991.44
2023-04-10T12:04:59.899Z,991.37
2023-04-10T12:05:59.850Z,991.38
2023-04-10T12:06:59.874Z,991.34
2023-04-10T12:07:59.830Z,991.34
2023-04-10T12:08:59.807Z,991.26
2023-04-10T12:09:59.836Z,991.29
2023-04-10T12:10:59.795Z,991.29
2023-04-10T12:11:59.813Z,991.14
2023-04-10T12:12:59.787Z,991.28
2023-04-10T12:13:59.771Z,991.22
2023-04-10T12:14:59.742Z,991.31
2023-04-10T12:15:59.794Z,991.27
2023-04-10T12:16:59.755Z,991.19
2023-04-10T12:17:59.771Z,991.27
2023-04-10T12:18:59.724Z,991.22
2023-04-10T12:19:59.724Z,991.18
2023-04-10T12:20:59.668Z,991.15
2023-04-10T12:21:59.713Z,991.22
2023-04-10T12:22:59.694Z,991.21
2023-04-10T12:23:59.650Z,991.26
2023-04-10T12:24:59.642Z,991.11
2023-04-10T12:25:59.688Z,991.19
2023-04-10T12:27:00.381Z,991.14
2023-04-10T12:27:59.624Z,991.16
2023-04-10T12:28:59.619Z,991.13